Time;durP1;ratioP1;P1;durP2;ratioP2;P2;SDS_P1;SDS_P2;PMS_P1;PMS_P2;Temp;Humidity;BMP_temperature;BMP_pressure;BME280_temperature;BME280_humidity;BME280_pressure;Samples;Min_cycle;Max_cycle;Signal;HPM_P1;HPM_P2
2022/10/01 00:02:06;;;;;;;6.30;4.90;;;11.90;99.90;;;;;;5034172;28;20457;-64
2022/10/01 00:04:36;;;;;;;6.53;5.40;;;11.90;99.90;;;;;;5034417;28;20477;-63
2022/10/01 00:07:06;;;;;;;7.83;5.67;;;11.90;99.90;;;;;;5034340;28;20539;-63
2022/10/01 00:09:33;;;;;;;6.03;5.43;;;11.90;99.90;;;;;;5034294;28;20438;-63
2022/10/01 00:12:00;;;;;;;5.97;5.37;;;11.90;99.90;;;;;;5034076;28;20528;-63
2022/10/01 00:14:28;;;;;;;6.20;5.60;;;11.90;99.90;;;;;;5034025;28;20446;-63
2022/10/01 00:16:55;;;;;;;6.37;5.40;;;11.90;99.90;;;;;;5033913;28;20733;-63
2022/10/01 00:19:22;;;;;;;6.70;5.80;;;11.90;99.90;;;;;;5034007;28;20499;-62
2022/10/01 00:21:49;;;;;;;8.20;6.00;;;11.90;99.90;;;;;;5033486;28;20605;-63
2022/10/01 00:24:16;;;;;;;6.20;5.37;;;11.80;99.90;;;;;;5033803;28;20909;-63
2022/10/01 00:26:44;;;;;;;5.90;5.13;;;11.80;99.90;;;;;;5033733;28;20442;-62
2022/10/01 00:29:14;;;;;;;7.00;6.27;;;11.80;99.90;;;;;;5033538;28;20437;-63
2022/10/01 00:31:42;;;;;;;7.00;5.27;;;11.90;99.90;;;;;;5033615;28;20565;-62
2022/10/01 00:34:12;;;;;;;7.00;6.17;;;11.90;99.90;;;;;;5033506;28;20517;-63
2022/10/01 00:36:39;;;;;;;7.07;5.27;;;11.90;99.90;;;;;;5033514;28;20445;-62
2022/10/01 00:39:05;;;;;;;6.70;5.60;;;11.80;99.90;;;;;;5033398;28;20445;-64
2022/10/01 00:41:34;;;;;;;8.27;5.73;;;11.80;99.90;;;;;;5033449;28;20434;-63
2022/10/01 00:44:03;;;;;;;7.30;6.00;;;11.60;99.90;;;;;;5033696;28;20515;-63
2022/10/01 00:46:36;;;;;;;5.87;4.80;;;11.60;99.90;;;;;;5033266;28;20245;-63
2022/10/01 00:49:09;;;;;;;7.00;6.20;;;11.60;99.90;;;;;;5033013;28;20593;-62
2022/10/01 00:51:39;;;;;;;9.23;5.87;;;11.60;99.90;;;;;;5033064;28;20621;-64
2022/10/01 00:54:10;;;;;;;9.27;5.60;;;11.60;99.90;;;;;;5033326;28;20473;-63
2022/10/01 00:56:38;;;;;;;6.57;5.28;;;11.50;99.90;;;;;;5033350;28;20221;-63
2022/10/01 00:59:06;;;;;;;6.07;5.32;;;11.50;99.90;;;;;;5032998;28;20252;-62
2022/10/01 01:01:35;;;;;;;5.93;5.00;;;11.50;99.90;;;;;;5033195;28;20263;-62
2022/10/01 01:04:15;;;;;;;5.55;4.47;;;11.50;99.90;;;;;;5033253;28;20477;-63
2022/10/01 01:06:42;;;;;;;6.37;5.23;;;11.60;99.90;;;;;;5033247;28;20201;-63
2022/10/01 01:09:09;;;;;;;6.83;5.27;;;11.60;99.90;;;;;;5032880;28;20450;-63
2022/10/01 01:11:44;;;;;;;6.18;4.97;;;11.70;99.90;;;;;;5032780;28;20486;-63
2022/10/01 01:14:18;;;;;;;6.43;4.93;;;11.70;99.90;;;;;;5033030;28;20285;-63
2022/10/01 01:16:51;;;;;;;6.97;4.83;;;11.80;99.90;;;;;;5032371;28;20437;-63
2022/10/01 01:19:33;;;;;;;6.20;4.67;;;11.80;99.90;;;;;;5032629;28;20432;-64
2022/10/01 01:22:05;;;;;;;10.57;5.18;;;11.80;99.90;;;;;;5032627;28;20908;-63
2022/10/01 01:24:49;;;;;;;6.50;4.67;;;11.70;99.90;;;;;;5032959;28;20634;-63
2022/10/01 01:27:27;;;;;;;6.60;4.50;;;11.70;99.90;;;;;;5032484;28;20917;-63
2022/10/01 01:30:02;;;;;;;5.73;4.57;;;11.60;99.90;;;;;;5032492;28;20487;-62
2022/10/01 01:32:34;;;;;;;6.30;4.77;;;11.50;99.90;;;;;;5032130;28;21061;-63
2022/10/01 01:35:04;;;;;;;5.67;5.07;;;11.40;99.90;;;;;;5032866;28;20793;-63
2022/10/01 01:37:35;;;;;;;5.63;4.65;;;11.30;99.90;;;;;;5032956;28;20438;-63
2022/10/01 01:40:05;;;;;;;5.28;4.32;;;11.20;99.90;;;;;;5032923;28;20241;-62
2022/10/01 01:42:36;;;;;;;7.20;5.50;;;11.20;99.90;;;;;;5032925;28;20191;-63
2022/10/01 01:45:08;;;;;;;6.32;4.63;;;11.10;99.90;;;;;;5033127;28;20438;-63
2022/10/01 01:47:38;;;;;;;7.85;4.07;;;11.10;99.90;;;;;;5032614;28;20245;-62
2022/10/01 01:50:07;;;;;;;7.35;5.45;;;11.00;99.90;;;;;;5032790;28;20190;-63
2022/10/01 01:52:34;;;;;;;5.43;4.65;;;11.00;99.90;;;;;;5032598;28;20223;-63
2022/10/01 01:55:04;;;;;;;13.45;5.47;;;10.90;99.90;;;;;;5032788;28;20219;-63
2022/10/01 01:57:32;;;;;;;6.78;4.88;;;10.80;99.90;;;;;;5032268;28;20198;-63
2022/10/01 01:59:59;;;;;;;7.10;4.60;;;10.80;99.90;;;;;;5032438;28;20592;-62
2022/10/01 02:02:31;;;;;;;8.05;4.90;;;10.70;99.90;;;;;;5032226;28;20202;-63
2022/10/01 02:05:02;;;;;;;5.15;3.42;;;10.60;99.90;;;;;;5032627;28;20203;-63
2022/10/01 02:07:46;;;;;;;7.93;4.00;;;10.50;99.90;;;;;;5032502;28;20187;-62
2022/10/01 02:10:36;;;;;;;4.10;3.53;;;10.40;99.90;;;;;;5032410;28;20191;-63
2022/10/01 02:13:21;;;;;;;4.80;3.63;;;10.20;99.80;;;;;;5035937;28;20564;-64
2022/10/01 02:15:58;;;;;;;5.20;3.90;;;10.10;99.90;;;;;;5036349;28;20535;-63
2022/10/01 02:18:34;;;;;;;4.13;3.60;;;10.10;99.90;;;;;;5036283;28;20290;-62
2022/10/01 02:21:12;;;;;;;13.50;5.05;;;10.00;99.90;;;;;;5036408;28;20244;-62
2022/10/01 02:23:43;;;;;;;6.05;3.88;;;10.00;99.90;;;;;;5036186;28;20191;-63
2022/10/01 02:26:15;;;;;;;5.30;4.80;;;9.80;99.90;;;;;;5036245;28;20298;-63
2022/10/01 02:28:44;;;;;;;6.45;5.38;;;9.80;99.90;;;;;;5036250;28;20186;-63
2022/10/01 02:31:13;;;;;;;5.15;4.63;;;9.80;99.90;;;;;;5035989;28;20227;-63
2022/10/01 02:33:42;;;;;;;7.35;6.20;;;9.80;99.90;;;;;;5036009;28;20225;-62
2022/10/01 02:36:11;;;;;;;10.43;6.88;;;9.70;99.90;;;;;;5035844;28;20195;-63
2022/10/01 02:38:40;;;;;;;5.65;4.85;;;9.70;99.90;;;;;;5035982;28;20289;-63
2022/10/01 02:41:10;;;;;;;4.85;3.80;;;9.60;99.90;;;;;;5035968;28;20195;-63
2022/10/01 02:43:42;;;;;;;5.03;4.07;;;9.60;99.90;;;;;;5036005;28;20191;-63
2022/10/01 02:46:20;;;;;;;6.90;4.65;;;9.50;99.90;;;;;;5035281;28;20227;-63
2022/10/01 02:48:50;;;;;;;5.03;4.50;;;9.40;99.90;;;;;;5035355;28;20567;-62
2022/10/01 02:51:25;;;;;;;5.22;3.80;;;9.40;99.90;;;;;;5035331;28;20654;-62
2022/10/01 02:53:57;;;;;;;9.85;3.60;;;9.30;99.90;;;;;;5035558;28;20222;-62
2022/10/01 02:59:10;;;;;;;4.07;3.42;;;9.30;99.90;;;;;;5035211;28;20178;-62
2022/10/01 03:01:37;;;;;;;5.15;4.45;;;9.20;99.90;;;;;;5035320;28;20218;-63
2022/10/01 03:04:05;;;;;;;4.78;3.40;;;9.10;99.90;;;;;;5035410;28;20199;-63
2022/10/01 03:06:34;;;;;;;5.10;3.28;;;9.10;99.90;;;;;;5035722;28;20230;-62
2022/10/01 03:09:02;;;;;;;4.55;3.47;;;9.00;99.90;;;;;;5035457;28;20197;-62
2022/10/01 03:11:29;;;;;;;3.42;2.83;;;9.00;99.90;;;;;;5035408;28;20596;-63
2022/10/01 03:13:56;;;;;;;5.20;3.63;;;9.00;99.90;;;;;;5035289;28;21179;-62
2022/10/01 03:16:23;;;;;;;4.25;3.45;;;9.00;99.90;;;;;;5035076;28;20195;-63
2022/10/01 03:18:49;;;;;;;4.68;3.70;;;9.00;99.90;;;;;;5035313;28;20194;-62
2022/10/01 03:21:18;;;;;;;6.70;3.13;;;9.00;99.90;;;;;;5034965;28;20206;-63
2022/10/01 03:23:45;;;;;;;4.75;2.72;;;9.00;99.90;;;;;;5034569;28;20187;-63
2022/10/01 03:26:12;;;;;;;4.50;3.60;;;8.90;99.90;;;;;;5034897;28;20668;-63
2022/10/01 03:28:38;;;;;;;3.20;2.40;;;8.90;99.90;;;;;;5034974;28;20245;-63
2022/10/01 03:31:07;;;;;;;3.67;2.88;;;8.90;99.90;;;;;;5034901;28;20226;-62
2022/10/01 03:33:35;;;;;;;4.60;3.58;;;8.80;99.90;;;;;;5035017;28;20231;-62
2022/10/01 03:36:02;;;;;;;3.50;3.05;;;8.80;99.90;;;;;;5035063;28;20195;-62
2022/10/01 03:38:31;;;;;;;4.43;3.30;;;8.80;99.90;;;;;;5035078;28;20242;-62
2022/10/01 03:40:58;;;;;;;4.57;4.18;;;8.70;99.90;;;;;;5034539;28;20191;-62
2022/10/01 03:43:29;;;;;;;4.93;3.75;;;8.70;99.90;;;;;;5034704;28;20261;-62
2022/10/01 03:45:56;;;;;;;5.15;4.25;;;8.70;99.90;;;;;;5034435;28;20253;-63
2022/10/01 03:48:23;;;;;;;3.85;3.10;;;8.70;99.90;;;;;;5034373;28;20234;-62
2022/10/01 03:50:55;;;;;;;3.67;2.80;;;8.70;99.90;;;;;;5034673;28;20219;-62
2022/10/01 03:53:22;;;;;;;5.10;2.88;;;8.60;99.90;;;;;;5034576;28;20251;-62
2022/10/01 03:55:50;;;;;;;4.25;2.83;;;8.60;99.90;;;;;;5034440;28;20244;-63
2022/10/01 03:58:17;;;;;;;5.05;3.60;;;8.50;99.90;;;;;;5034507;28;20230;-63
2022/10/01 04:00:45;;;;;;;4.78;3.40;;;8.60;99.90;;;;;;5034405;28;20545;-63
2022/10/01 04:03:12;;;;;;;4.00;3.25;;;8.60;99.90;;;;;;5034237;28;20191;-62
2022/10/01 04:05:39;;;;;;;6.32;4.05;;;8.60;99.90;;;;;;5034862;28;20516;-63
2022/10/01 04:08:06;;;;;;;5.18;3.55;;;8.50;99.90;;;;;;5034626;28;20218;-63
2022/10/01 04:10:33;;;;;;;4.47;3.60;;;8.50;99.90;;;;;;5034697;28;20195;-62
2022/10/01 04:13:02;;;;;;;5.18;3.60;;;8.50;99.90;;;;;;5034533;28;20262;-62
2022/10/01 04:15:29;;;;;;;4.20;3.33;;;8.60;99.90;;;;;;5034493;28;20191;-63
2022/10/01 04:17:56;;;;;;;4.38;3.60;;;8.50;99.90;;;;;;5034184;28;20665;-63
2022/10/01 04:20:23;;;;;;;4.90;3.72;;;8.60;99.90;;;;;;5034390;28;20194;-62
2022/10/01 04:22:50;;;;;;;5.65;3.53;;;8.60;99.90;;;;;;5034341;28;20195;-62
2022/10/01 04:25:17;;;;;;;5.07;3.97;;;8.60;99.90;;;;;;5034292;28;20190;-62
2022/10/01 04:27:57;;;;;;;4.85;4.05;;;8.50;99.90;;;;;;5034204;28;20633;-63
2022/10/01 04:30:26;;;;;;;5.43;4.50;;;8.60;99.90;;;;;;5034309;28;20277;-62
2022/10/01 04:32:54;;;;;;;4.38;3.97;;;8.50;99.90;;;;;;5033895;28;20250;-63
2022/10/01 04:35:20;;;;;;;5.13;4.10;;;8.50;99.90;;;;;;5033234;28;20245;-62
2022/10/01 04:37:48;;;;;;;5.28;4.78;;;8.50;99.90;;;;;;5034073;28;20206;-63
2022/10/01 04:40:16;;;;;;;8.55;4.70;;;8.50;99.90;;;;;;5033439;28;20226;-62
2022/10/01 04:42:43;;;;;;;5.07;3.78;;;8.50;99.90;;;;;;5033970;28;20195;-63
2022/10/01 04:45:12;;;;;;;6.13;5.10;;;8.50;99.90;;;;;;5033615;28;20270;-62
2022/10/01 04:47:47;;;;;;;5.60;4.93;;;8.50;99.90;;;;;;5033699;28;20620;-63
2022/10/01 04:50:15;;;;;;;7.45;5.53;;;8.60;99.90;;;;;;5033939;28;20199;-63
2022/10/01 04:52:42;;;;;;;7.43;4.60;;;8.60;99.90;;;;;;5033693;28;20515;-63
2022/10/01 04:55:10;;;;;;;5.72;4.38;;;8.60;99.90;;;;;;5033773;28;20198;-63
2022/10/01 04:57:38;;;;;;;8.93;4.65;;;8.60;99.90;;;;;;5033747;28;20218;-63
2022/10/01 05:00:06;;;;;;;5.45;4.53;;;8.60;99.90;;;;;;5033611;28;20648;-62
2022/10/01 05:02:34;;;;;;;5.35;4.57;;;8.60;99.90;;;;;;5033204;28;20266;-62
2022/10/01 05:05:03;;;;;;;5.25;4.63;;;8.60;99.90;;;;;;5033481;28;20709;-62
2022/10/01 05:07:30;;;;;;;5.63;4.15;;;8.50;99.90;;;;;;5033477;28;20195;-62
2022/10/01 05:09:59;;;;;;;7.40;5.40;;;8.60;99.90;;;;;;5033471;28;20226;-63
2022/10/01 05:12:26;;;;;;;6.78;5.25;;;8.60;99.90;;;;;;5033381;28;20647;-62
2022/10/01 05:14:53;;;;;;;4.47;4.03;;;8.60;99.90;;;;;;5032835;28;20223;-62
2022/10/01 05:17:20;;;;;;;4.97;4.20;;;8.60;99.90;;;;;;5033406;28;20606;-62
2022/10/01 05:19:48;;;;;;;9.65;4.45;;;8.60;99.90;;;;;;5033298;28;20245;-62
2022/10/01 05:22:16;;;;;;;6.93;4.70;;;8.60;99.90;;;;;;5032877;28;20646;-62
2022/10/01 05:24:43;;;;;;;6.53;5.05;;;8.70;99.90;;;;;;5033285;28;20191;-63
2022/10/01 05:27:12;;;;;;;6.50;4.90;;;8.70;99.90;;;;;;5032972;28;20286;-62
2022/10/01 05:29:39;;;;;;;5.78;4.05;;;8.70;99.90;;;;;;5033097;28;20198;-62
2022/10/01 05:32:07;;;;;;;5.50;4.60;;;8.70;99.90;;;;;;5032996;28;20198;-63
2022/10/01 05:34:34;;;;;;;6.25;4.93;;;8.80;99.90;;;;;;5033077;28;20230;-63
2022/10/01 05:37:01;;;;;;;6.57;4.80;;;8.80;99.90;;;;;;5032837;28;20249;-63
2022/10/01 05:39:30;;;;;;;9.70;6.22;;;8.90;99.90;;;;;;5033110;28;20602;-62
2022/10/01 05:41:57;;;;;;;6.28;5.68;;;8.90;99.90;;;;;;5032996;28;20187;-63
2022/10/01 05:44:25;;;;;;;6.18;5.57;;;9.00;99.90;;;;;;5032588;28;20223;-63
2022/10/01 05:46:53;;;;;;;9.07;7.05;;;9.00;99.90;;;;;;5032517;28;20553;-62
2022/10/01 05:49:20;;;;;;;7.38;5.78;;;9.10;99.90;;;;;;5032768;28;20668;-62
2022/10/01 05:51:48;;;;;;;5.57;4.47;;;9.20;99.90;;;;;;5032691;28;20231;-62
2022/10/01 05:54:18;;;;;;;5.80;5.13;;;9.30;99.90;;;;;;5032901;28;20624;-62
2022/10/01 05:56:46;;;;;;;6.93;6.00;;;9.30;99.90;;;;;;5032832;28;20578;-63
2022/10/01 05:59:13;;;;;;;9.43;5.25;;;9.30;99.90;;;;;;5032840;28;20199;-62
2022/10/01 06:01:40;;;;;;;6.53;5.10;;;9.20;99.90;;;;;;5032645;28;20233;-62
2022/10/01 06:04:09;;;;;;;6.55;4.43;;;9.10;99.90;;;;;;5032599;28;20191;-63
2022/10/01 06:06:36;;;;;;;7.63;4.93;;;9.10;99.90;;;;;;5032983;28;20190;-62
2022/10/01 06:09:03;;;;;;;8.40;6.63;;;9.00;99.90;;;;;;5032878;28;20195;-62
2022/10/01 06:11:30;;;;;;;7.40;5.55;;;9.00;99.90;;;;;;5032940;28;20211;-62
2022/10/01 06:13:59;;;;;;;5.65;5.05;;;8.90;99.90;;;;;;5032690;28;20234;-62
2022/10/01 06:16:26;;;;;;;7.05;5.63;;;8.90;99.90;;;;;;5032774;28;20203;-64
2022/10/01 06:18:56;;;;;;;6.97;5.40;;;8.90;99.90;;;;;;5032874;28;20199;-62
2022/10/01 06:21:27;;;;;;;6.15;5.15;;;9.00;99.90;;;;;;5032838;28;20210;-63
2022/10/01 06:23:54;;;;;;;6.88;4.93;;;9.20;99.90;;;;;;5032897;28;20201;-63
2022/10/01 06:26:21;;;;;;;9.65;4.13;;;9.30;99.90;;;;;;5032846;28;20226;-63
2022/10/01 06:28:50;;;;;;;6.70;5.15;;;9.40;99.90;;;;;;5032568;28;20237;-63
2022/10/01 06:31:19;;;;;;;7.07;5.53;;;9.50;99.90;;;;;;5032480;28;20654;-63
2022/10/01 06:33:46;;;;;;;8.25;5.38;;;9.60;99.90;;;;;;5032626;28;20219;-63
2022/10/01 06:36:13;;;;;;;5.70;5.03;;;9.60;99.90;;;;;;5032421;28;20187;-63
2022/10/01 06:38:41;;;;;;;5.55;4.70;;;9.60;99.90;;;;;;5032551;28;20199;-62
2022/10/01 06:41:10;;;;;;;5.40;3.80;;;9.70;99.90;;;;;;5032647;28;20536;-63
2022/10/01 06:43:36;;;;;;;5.90;4.38;;;9.80;99.90;;;;;;5032506;28;20210;-64
2022/10/01 06:46:05;;;;;;;5.30;4.40;;;9.80;99.90;;;;;;5032246;28;20221;-63
2022/10/01 06:48:35;;;;;;;4.70;3.45;;;9.90;99.90;;;;;;5032165;28;20226;-63
2022/10/01 06:51:03;;;;;;;6.05;4.63;;;10.10;99.90;;;;;;5032602;28;20566;-63
2022/10/01 06:53:30;;;;;;;3.90;3.13;;;10.20;99.90;;;;;;5032331;28;20715;-63
2022/10/01 06:55:57;;;;;;;8.45;6.82;;;10.30;99.90;;;;;;5032519;28;20245;-63
2022/10/01 06:58:26;;;;;;;9.00;7.43;;;10.40;99.90;;;;;;5034450;28;20195;-63
2022/10/01 07:00:58;;;;;;;6.68;4.93;;;10.50;99.90;;;;;;5035751;28;20197;-63
2022/10/01 07:03:25;;;;;;;5.78;4.15;;;10.70;99.90;;;;;;5036217;28;20191;-63
2022/10/01 07:05:54;;;;;;;4.70;4.10;;;10.70;99.80;;;;;;5036484;28;20198;-63
2022/10/01 07:08:21;;;;;;;4.65;3.55;;;10.70;99.80;;;;;;5038108;28;20598;-64
2022/10/01 07:10:48;;;;;;;6.50;4.82;;;10.70;99.50;;;;;;5036628;28;20214;-62
2022/10/01 07:13:17;;;;;;;6.28;4.75;;;10.80;99.90;;;;;;5035347;28;20231;-63
2022/10/01 07:15:44;;;;;;;5.35;4.15;;;10.70;99.20;;;;;;5035500;28;20230;-63
2022/10/01 07:18:12;;;;;;;7.43;4.93;;;10.70;99.10;;;;;;5035349;28;20245;-63
2022/10/01 07:20:40;;;;;;;6.82;5.03;;;10.80;99.40;;;;;;5035335;28;20277;-64
2022/10/01 07:23:11;;;;;;;5.80;4.30;;;11.00;99.90;;;;;;5035699;28;20210;-63
2022/10/01 07:25:38;;;;;;;5.93;5.00;;;11.10;99.90;;;;;;5035532;28;20195;-65
2022/10/01 07:28:14;;;;;;;7.25;4.95;;;11.20;99.90;;;;;;5035330;28;20195;-63
2022/10/01 07:30:41;;;;;;;5.15;3.92;;;11.30;99.90;;;;;;5035427;28;20604;-63
2022/10/01 07:33:08;;;;;;;6.13;3.70;;;11.40;99.90;;;;;;5035251;28;20195;-63
2022/10/01 07:35:37;;;;;;;5.80;5.30;;;11.40;99.90;;;;;;5035348;28;20273;-63
2022/10/01 07:38:06;;;;;;;5.03;3.50;;;11.50;99.90;;;;;;5035489;28;20438;-63
2022/10/01 07:40:35;;;;;;;5.37;3.37;;;11.60;99.90;;;;;;5035439;28;20783;-63
2022/10/01 07:43:02;;;;;;;5.57;4.40;;;11.70;99.90;;;;;;5035039;28;20477;-63
2022/10/01 07:45:29;;;;;;;4.80;3.33;;;11.70;99.90;;;;;;5035123;28;20520;-63
2022/10/01 07:47:57;;;;;;;5.33;3.70;;;11.80;99.90;;;;;;5034767;28;20462;-64
2022/10/01 07:50:28;;;;;;;4.90;3.10;;;11.90;99.90;;;;;;5035246;28;20452;-64
2022/10/01 07:52:56;;;;;;;5.33;3.23;;;11.90;99.80;;;;;;5034995;28;20554;-63
2022/10/01 07:55:26;;;;;;;4.37;3.23;;;12.00;99.60;;;;;;5034523;28;20568;-64
2022/10/01 07:58:00;;;;;;;4.60;3.43;;;12.00;99.40;;;;;;5034809;28;20529;-63
2022/10/01 08:00:28;;;;;;;5.10;3.60;;;12.10;99.70;;;;;;5034513;28;20853;-63
2022/10/01 08:02:56;;;;;;;5.63;2.83;;;12.20;99.70;;;;;;5034619;28;20532;-63
2022/10/01 08:05:24;;;;;;;3.37;2.40;;;12.20;99.50;;;;;;5034726;28;20437;-63
2022/10/01 08:07:52;;;;;;;4.93;1.90;;;12.30;99.70;;;;;;5034623;28;20433;-63
2022/10/01 08:10:22;;;;;;;2.70;1.77;;;12.40;99.50;;;;;;5034685;28;20774;-63
2022/10/01 08:12:48;;;;;;;3.33;2.37;;;12.40;99.40;;;;;;5034698;28;20445;-64
2022/10/01 08:15:18;;;;;;;3.53;2.20;;;12.50;99.40;;;;;;5034731;28;20623;-63
2022/10/01 08:17:45;;;;;;;2.83;2.10;;;12.60;98.80;;;;;;5034505;28;20438;-63
2022/10/01 08:20:15;;;;;;;4.17;2.20;;;12.60;98.40;;;;;;5034464;28;20446;-63
2022/10/01 08:22:42;;;;;;;3.20;2.27;;;12.60;98.30;;;;;;5034188;28;20438;-63
2022/10/01 08:25:09;;;;;;;3.67;3.00;;;12.70;98.50;;;;;;5034567;28;20442;-64
2022/10/01 08:27:36;;;;;;;3.30;2.30;;;12.70;98.30;;;;;;5034455;28;20477;-64
2022/10/01 08:30:04;;;;;;;4.50;3.30;;;12.70;98.40;;;;;;5034401;28;20438;-63
2022/10/01 08:32:33;;;;;;;4.50;3.37;;;12.80;98.60;;;;;;5033971;28;20503;-63
2022/10/01 08:35:00;;;;;;;4.83;2.73;;;12.90;98.60;;;;;;5033936;28;20577;-63
2022/10/01 08:37:28;;;;;;;3.13;2.33;;;12.80;97.80;;;;;;5034219;28;20464;-63
2022/10/01 08:39:55;;;;;;;9.23;4.23;;;12.90;97.90;;;;;;5034039;28;20477;-63
2022/10/01 08:42:41;;;;;;;4.80;3.70;;;12.90;97.80;;;;;;5034103;28;20434;-63
2022/10/01 08:45:13;;;;;;;6.63;5.00;;;12.90;97.40;;;;;;5033940;28;20434;-64
2022/10/01 08:47:48;;;;;;;4.30;3.30;;;12.90;97.30;;;;;;5033453;28;20461;-64
2022/10/01 08:50:23;;;;;;;3.57;2.27;;;13.00;97.60;;;;;;5033758;28;20429;-63
2022/10/01 08:52:56;;;;;;;4.80;1.80;;;12.90;96.90;;;;;;5033588;28;20465;-63
2022/10/01 08:55:27;;;;;;;3.13;2.63;;;12.90;97.00;;;;;;5033460;28;20571;-63
2022/10/01 08:57:57;;;;;;;3.63;1.90;;;12.90;97.00;;;;;;5033670;28;21007;-64
2022/10/01 09:00:24;;;;;;;2.70;1.80;;;12.80;97.20;;;;;;5033813;28;20846;-63
2022/10/01 09:02:52;;;;;;;3.40;2.73;;;12.80;97.50;;;;;;5033727;28;20493;-64
2022/10/01 09:05:25;;;;;;;5.17;3.13;;;12.80;97.80;;;;;;5033442;28;20950;-64
2022/10/01 09:08:08;;;;;;;3.93;2.33;;;12.80;97.40;;;;;;5033550;28;20783;-63
2022/10/01 09:10:43;;;;;;;4.00;2.23;;;12.90;97.40;;;;;;5033425;28;20430;-63
2022/10/01 09:13:45;;;;;;;4.37;3.50;;;12.90;97.30;;;;;;5033016;28;20485;-63
2022/10/01 09:16:22;;;;;;;4.10;3.20;;;12.90;97.40;;;;;;5033512;28;20489;-64
2022/10/01 09:19:05;;;;;;;3.70;2.73;;;13.00;97.50;;;;;;5033580;28;20564;-63
2022/10/01 09:21:46;;;;;;;3.70;3.00;;;13.10;97.60;;;;;;5033093;28;20469;-63
2022/10/01 09:24:15;;;;;;;3.40;2.20;;;13.20;97.70;;;;;;5033493;28;20793;-64
2022/10/01 09:26:47;;;;;;;2.87;1.90;;;13.30;97.80;;;;;;5033380;28;20520;-64
2022/10/01 09:29:20;;;;;;;3.73;2.20;;;13.40;97.30;;;;;;5032980;28;20448;-64
2022/10/01 09:31:48;;;;;;;2.60;1.93;;;13.50;96.50;;;;;;5033382;28;20433;-63
2022/10/01 09:34:24;;;;;;;5.90;2.03;;;13.50;95.80;;;;;;5033298;28;20438;-65
2022/10/01 09:37:04;;;;;;;3.50;2.60;;;13.60;94.40;;;;;;5033328;28;20434;-63
2022/10/01 09:39:38;;;;;;;3.10;1.63;;;13.50;93.90;;;;;;5033270;28;20924;-63
2022/10/01 09:42:05;;;;;;;2.50;1.50;;;13.60;94.20;;;;;;5033320;28;20507;-63
2022/10/01 09:44:33;;;;;;;2.63;1.90;;;13.60;94.20;;;;;;5033231;28;20491;-64
2022/10/01 09:47:00;;;;;;;3.53;1.63;;;13.70;94.70;;;;;;5032835;28;20859;-63
2022/10/01 09:49:32;;;;;;;2.60;1.83;;;13.80;95.00;;;;;;5032615;28;20478;-63
2022/10/01 09:52:06;;;;;;;2.60;1.73;;;13.80;94.90;;;;;;5033100;28;20839;-63
2022/10/01 09:54:39;;;;;;;2.43;1.43;;;13.90;94.80;;;;;;5033071;28;20481;-65
2022/10/01 09:57:09;;;;;;;14.10;10.17;;;14.00;95.30;;;;;;5033115;28;20477;-64
2022/10/01 09:59:43;;;;;;;14.30;7.53;;;14.10;95.10;;;;;;5033033;28;20963;-63
2022/10/01 10:02:18;;;;;;;6.03;2.20;;;14.10;95.00;;;;;;5032928;28;20851;-64
2022/10/01 10:04:46;;;;;;;3.90;1.90;;;14.10;94.10;;;;;;5032802;28;20433;-64
2022/10/01 10:07:18;;;;;;;2.30;1.50;;;14.00;93.80;;;;;;5032846;28;20567;-64
2022/10/01 10:09:46;;;;;;;5.13;2.60;;;14.00;94.40;;;;;;5032710;28;20465;-63
2022/10/01 10:12:28;;;;;;;3.17;2.20;;;14.00;94.70;;;;;;5032966;28;20474;-63
2022/10/01 10:14:57;;;;;;;4.67;3.30;;;14.00;94.80;;;;;;5032654;28;20485;-64
2022/10/01 10:17:25;;;;;;;7.23;4.47;;;14.00;95.00;;;;;;5032667;28;20486;-63
2022/10/01 10:19:54;;;;;;;7.83;5.67;;;14.00;95.20;;;;;;5032907;28;20474;-63
2022/10/01 10:22:24;;;;;;;7.70;3.77;;;14.00;95.20;;;;;;5032667;28;20478;-64
2022/10/01 10:24:52;;;;;;;3.47;2.73;;;14.00;95.40;;;;;;5032264;28;20442;-64
2022/10/01 10:27:26;;;;;;;3.43;2.50;;;14.00;96.00;;;;;;5032497;28;20437;-63
2022/10/01 10:30:03;;;;;;;5.53;2.23;;;14.00;95.70;;;;;;5032508;28;20787;-64
2022/10/01 10:32:30;;;;;;;4.00;2.80;;;13.90;96.00;;;;;;5033259;28;20452;-63
2022/10/01 10:35:04;;;;;;;5.27;2.93;;;13.80;96.30;;;;;;5036445;28;20492;-63
2022/10/01 10:37:36;;;;;;;4.30;3.37;;;13.80;96.60;;;;;;5036497;28;20513;-64
2022/10/01 10:40:06;;;;;;;9.70;4.83;;;13.80;97.50;;;;;;5036622;28;21160;-63
2022/10/01 10:42:36;;;;;;;8.73;5.10;;;13.80;97.40;;;;;;5036368;28;20438;-64
2022/10/01 10:45:14;;;;;;;4.70;2.50;;;13.80;97.80;;;;;;5036442;28;20794;-63
2022/10/01 10:47:46;;;;;;;3.27;2.20;;;13.80;98.10;;;;;;5035995;28;20556;-63
2022/10/01 10:50:28;;;;;;;4.00;2.50;;;13.80;98.60;;;;;;5035896;28;20468;-63
2022/10/01 10:52:56;;;;;;;2.73;1.90;;;13.80;98.30;;;;;;5036248;28;20453;-64
2022/10/01 10:55:25;;;;;;;3.17;2.20;;;13.80;98.30;;;;;;5036158;28;20485;-63
2022/10/01 10:57:53;;;;;;;5.53;1.93;;;13.70;98.40;;;;;;5036070;28;20442;-64
2022/10/01 11:00:22;;;;;;;2.40;1.67;;;13.70;98.40;;;;;;5035881;28;20481;-63
2022/10/01 11:02:53;;;;;;;2.30;1.60;;;13.70;98.50;;;;;;5035931;28;20450;-63
2022/10/01 11:05:23;;;;;;;5.00;1.80;;;13.70;98.40;;;;;;5035946;28;20488;-63
2022/10/01 11:07:54;;;;;;;2.47;1.90;;;13.70;98.20;;;;;;5035953;28;20442;-63
2022/10/01 11:10:28;;;;;;;4.97;1.57;;;13.60;98.30;;;;;;5036047;28;20777;-64
2022/10/01 11:13:17;;;;;;;2.60;1.93;;;13.60;98.40;;;;;;5035244;28;20431;-63
2022/10/01 11:16:07;;;;;;;5.10;2.00;;;13.70;98.50;;;;;;5035614;28;20528;-64
2022/10/01 11:19:03;;;;;;;3.00;1.93;;;13.60;98.60;;;;;;5035708;28;20908;-63
2022/10/01 11:21:47;;;;;;;3.07;1.70;;;13.60;98.60;;;;;;5035673;28;20828;-63
2022/10/01 11:24:28;;;;;;;3.70;1.63;;;13.60;98.50;;;;;;5035788;28;20448;-64
2022/10/01 11:27:06;;;;;;;3.50;1.90;;;13.60;98.60;;;;;;5035463;28;20430;-63
2022/10/01 11:29:44;;;;;;;35.50;15.90;;;13.60;98.50;;;;;;5035653;28;20523;-63
2022/10/01 11:32:22;;;;;;;9.67;4.20;;;13.60;98.30;;;;;;5035071;28;20441;-64
2022/10/01 11:35:22;;;;;;;6.50;3.00;;;13.50;98.30;;;;;;5035227;28;20468;-63
2022/10/01 11:38:05;;;;;;;4.40;2.43;;;13.50;98.40;;;;;;5030486;28;20863;-63
2022/10/01 11:40:36;;;;;;;3.03;2.07;;;13.50;98.50;;;;;;5035324;28;20472;-65
2022/10/01 11:43:11;;;;;;;2.80;1.97;;;13.50;98.70;;;;;;5034894;28;20499;-63
2022/10/01 11:45:46;;;;;;;2.87;2.03;;;13.40;99.00;;;;;;5035407;28;20811;-64
2022/10/01 11:48:24;;;;;;;5.00;3.00;;;13.40;99.10;;;;;;5034443;28;20505;-63
2022/10/01 11:50:55;;;;;;;4.50;2.80;;;13.40;98.50;;;;;;5035062;28;20464;-63
2022/10/01 11:53:31;;;;;;;5.47;3.50;;;13.40;98.70;;;;;;5035080;28;20473;-63
2022/10/01 11:58:53;;;;;;;5.00;3.03;;;13.40;99.10;;;;;;5034884;28;20425;-63
2022/10/01 12:01:29;;;;;;;4.03;2.90;;;13.40;99.20;;;;;;5034751;28;20438;-64
2022/10/01 12:04:06;;;;;;;6.33;2.80;;;13.40;99.00;;;;;;5034917;28;20524;-63
2022/10/01 12:06:37;;;;;;;3.70;3.20;;;13.40;99.00;;;;;;5034823;28;20516;-64
2022/10/01 12:09:14;;;;;;;6.53;4.00;;;13.40;99.10;;;;;;5034639;28;20437;-63
2022/10/01 12:11:48;;;;;;;3.37;3.00;;;13.40;99.20;;;;;;5034362;28;20440;-63
2022/10/01 12:14:20;;;;;;;4.00;3.60;;;13.40;99.20;;;;;;5034432;28;20529;-63
2022/10/01 12:16:52;;;;;;;5.40;4.30;;;13.40;99.30;;;;;;5034219;28;20482;-64
2022/10/01 12:19:23;;;;;;;4.57;3.60;;;13.30;99.60;;;;;;5034274;28;20971;-63
2022/10/01 12:21:54;;;;;;;5.47;4.87;;;13.30;99.70;;;;;;5034322;28;20532;-63
2022/10/01 12:24:28;;;;;;;6.70;3.03;;;13.20;99.20;;;;;;5034341;28;20442;-63
2022/10/01 12:27:07;;;;;;;3.67;2.93;;;13.20;99.40;;;;;;5034355;28;20781;-63
2022/10/01 12:29:44;;;;;;;4.73;3.20;;;13.20;99.30;;;;;;5034421;28;20437;-63
2022/10/01 12:32:19;;;;;;;5.30;3.53;;;13.20;99.50;;;;;;5034143;28;20445;-63
2022/10/01 12:34:56;;;;;;;3.73;3.20;;;13.30;99.60;;;;;;5034095;28;20920;-64
2022/10/01 12:37:38;;;;;;;6.23;3.50;;;13.20;99.70;;;;;;5033836;28;20446;-63
2022/10/01 12:40:29;;;;;;;3.90;3.30;;;13.20;99.60;;;;;;5033943;28;20442;-64
2022/10/01 12:43:30;;;;;;;3.97;2.10;;;13.20;99.80;;;;;;5033935;28;20438;-63
2022/10/01 12:46:06;;;;;;;4.67;2.00;;;13.20;99.90;;;;;;4998270;28;20457;-63
2022/10/01 12:48:41;;;;;;;2.87;2.00;;;13.20;99.90;;;;;;5033842;28;20871;-63
2022/10/01 12:51:24;;;;;;;4.23;2.10;;;13.20;99.90;;;;;;5033604;28;20984;-64
2022/10/01 12:54:04;;;;;;;2.67;2.17;;;13.20;99.90;;;;;;5033956;28;20479;-63
2022/10/01 12:56:37;;;;;;;2.73;1.77;;;13.10;99.60;;;;;;5032770;28;20491;-63
2022/10/01 12:59:32;;;;;;;3.60;2.03;;;12.90;99.60;;;;;;5033830;28;20441;-63
2022/10/01 13:02:15;;;;;;;7.57;5.10;;;12.90;99.90;;;;;;5033694;28;20438;-64
2022/10/01 13:04:57;;;;;;;3.87;2.63;;;12.80;99.90;;;;;;5033844;28;20442;-63
2022/10/01 13:07:53;;;;;;;3.00;2.07;;;12.80;99.90;;;;;;5033740;28;20438;-63
2022/10/01 13:10:34;;;;;;;2.33;1.10;;;12.70;99.90;;;;;;5033679;28;20508;-63
2022/10/01 13:13:11;;;;;;;4.30;2.50;;;12.70;99.90;;;;;;5033727;28;20448;-63
2022/10/01 13:15:40;;;;;;;3.07;2.30;;;12.60;99.90;;;;;;5033494;28;20517;-63
2022/10/01 13:18:19;;;;;;;4.10;3.03;;;12.60;99.90;;;;;;5033180;28;20488;-64